Arvada, CO (80002)

9:16 AM MDT on July 30, 2016 (GMT -0600)
Hoyt Ct | | Change Station

Elev 5512 ft 39.82 °N, 105.10 °W | Updated 7 minutes ago

Clear
Clear
67.5 °F
Feels Like 67.5 °F
N
1.1
Wind Variable Wind from West

Today
High -- | Low -- °F
--% Chance of Precip.
Yesterday
High -- | Low -- °F
Precip. -- in
Pressure 30.09 in
Visibility 15.0 miles
Clouds Clear
Dew Point 60 °F
Humidity 77%
Rainfall 0.00 in
Snow Depth Not available.
5:57 AM 8:15 PM
Waning Crescent, 13% visible
METAR KBJC 301445Z 35008KT 15SM SKC 20/15 A3009
Pressure 30.09 in
Visibility 15.0 miles
Clouds Clear
Dew Point 60 °F
Humidity 77%
Rainfall 0.00 in
Snow Depth Not available.
5:57 AM 8:15 PM
Waning Crescent, 13% visible
METAR KBJC 301445Z 35008KT 15SM SKC 20/15 A3009

10-Day Weather Forecast

Almanac

Astronomy

Jul. 30, 2016 Rise Set
Actual Time
Civil Twilight
Nautical Twilight
Astronomical Twilight
Moon
Length of Visible Light
Length of Day
Tomorrow will be .
, % of the Moon is Illuminated

Today's Extremes

State Highs State Lows

Community

WunderPhotos

Upload Photos

1,928,575 photos uploaded!

WunderBlog® & News

Nearby

Air Quality

  Air Quality AQ Index Pollutant
Not available.

Snow Depth

Station Depth Elevation

Earthquake Activity

City Distance Mag. Time & Date
Minimum magnitude displayed is 2.5.

Coastal Water Temperatures

Place Temperature

Stations

Nearby Weather Stations

Station Location Temp. Windchill Dew Point Humidity Wind Precip. Elev Updated Type
                   

Watches & Warnings

There are currently no watches in effect.